createdAt,value
2023-03-23T15:59:01.217Z,0.98
2023-03-23T16:03:07.086Z,0.90
2023-03-23T16:07:13.938Z,0.90
2023-03-23T16:11:19.143Z,0.80
2023-03-23T16:15:23.420Z,0.70
2023-03-23T16:19:26.201Z,0.63
2023-03-23T16:23:28.886Z,0.70
2023-03-23T16:27:31.529Z,0.80
2023-03-23T16:31:35.636Z,0.77
2023-03-23T16:35:38.694Z,1.55
2023-03-23T16:39:41.430Z,1.00
2023-03-23T16:43:44.292Z,1.02
2023-03-23T16:47:48.612Z,0.93
2023-03-23T16:51:51.463Z,1.10
2023-03-23T16:55:54.217Z,1.08
2023-03-23T17:00:00.892Z,1.00
2023-03-23T17:04:05.513Z,1.05
2023-03-23T17:08:08.495Z,1.08
2023-03-23T17:12:11.230Z,1.35
2023-03-23T17:16:13.968Z,0.95
2023-03-23T17:20:18.096Z,0.90
2023-03-23T17:24:21.045Z,0.65
2023-03-23T17:28:23.755Z,1.10
2023-03-23T17:32:26.507Z,1.42
2023-03-23T17:36:31.064Z,0.98
2023-03-23T17:40:33.904Z,1.30
2023-03-23T17:44:36.742Z,1.30
2023-03-23T17:48:39.755Z,1.30
2023-03-23T17:52:44.905Z,1.50
2023-03-23T17:56:47.651Z,1.63
2023-03-23T18:00:50.409Z,1.73
2023-03-23T18:04:53.873Z,1.83
2023-03-23T18:08:57.950Z,1.52
2023-03-23T18:13:00.622Z,1.30
2023-03-23T18:17:03.353Z,1.35
2023-03-23T18:21:08.435Z,1.20
2023-03-23T18:25:12.558Z,1.33
2023-03-23T18:29:15.422Z,1.02
2023-03-23T18:33:20.378Z,1.20
2023-03-23T18:37:23.440Z,1.67
2023-03-23T18:41:28.239Z,1.55
2023-03-23T18:45:30.952Z,1.88
2023-03-23T18:49:34.325Z,1.83
2023-03-23T18:53:37.176Z,1.90
2023-03-23T18:57:41.369Z,1.65
2023-03-23T19:01:44.178Z,1.75
2023-03-23T19:05:47.074Z,1.77
2023-03-23T19:09:49.786Z,1.90
2023-03-23T19:14:01.605Z,1.50
2023-03-23T19:18:05.898Z,1.40
2023-03-23T19:22:09.046Z,1.50
2023-03-23T19:26:20.381Z,1.30
2023-03-23T19:30:24.495Z,1.70
2023-03-23T19:34:28.702Z,1.85
2023-03-23T19:38:31.464Z,1.50
2023-03-23T19:42:34.142Z,1.42
2023-03-23T19:46:38.574Z,1.40
2023-03-23T19:50:41.512Z,1.33
2023-03-23T19:54:44.540Z,1.35
2023-03-23T19:58:47.512Z,1.52
2023-03-23T20:02:51.633Z,1.42
2023-03-23T20:06:57.099Z,0.93
2023-03-23T20:11:04.618Z,1.20
2023-03-23T20:15:08.455Z,0.95
2023-03-23T20:19:12.515Z,1.00
2023-03-23T20:23:15.537Z,0.95
2023-03-23T20:27:18.926Z,1.75
2023-03-23T20:31:24.453Z,0.82
2023-03-23T20:35:29.436Z,0.93
2023-03-23T20:39:33.741Z,1.23
2023-03-23T20:43:36.685Z,0.80
2023-03-23T20:47:39.532Z,1.42
2023-03-23T20:51:44.724Z,1.92
2023-03-23T20:55:47.546Z,2.17
2023-03-23T20:59:50.845Z,2.08
2023-03-23T21:03:54.064Z,1.80
2023-03-23T21:07:58.170Z,1.10
2023-03-23T21:12:00.847Z,1.27
2023-03-23T21:16:05.556Z,1.98
2023-03-23T21:20:11.044Z,1.33
2023-03-23T21:24:16.462Z,1.38
2023-03-23T21:28:19.428Z,1.20
2023-03-23T21:32:22.126Z,1.55
2023-03-23T21:36:26.748Z,1.23
2023-03-23T21:40:30.834Z,1.23
2023-03-23T21:44:35.316Z,0.73
2023-03-23T21:48:38.870Z,0.80
2023-03-23T21:52:43.366Z,0.95
2023-03-23T21:56:48.474Z,1.10
2023-03-23T22:00:54.191Z,0.90
2023-03-23T22:04:57.409Z,0.80
2023-03-23T22:09:00.241Z,1.10
2023-03-23T22:13:04.314Z,0.57
2023-03-23T22:17:07.432Z,0.98
2023-03-23T22:21:10.704Z,0.77
2023-03-23T22:25:13.477Z,0.85
2023-03-23T22:29:18.024Z,0.80
2023-03-23T22:33:22.758Z,0.70
2023-03-23T22:37:26.055Z,0.50
2023-03-23T22:41:32.495Z,0.70
2023-03-23T22:45:36.655Z,0.85
2023-03-23T22:49:39.374Z,0.73
2023-03-23T22:53:42.223Z,0.63
2023-03-23T22:57:44.897Z,0.90
2023-03-23T23:01:49.024Z,0.70
2023-03-23T23:05:53.538Z,0.63
2023-03-23T23:09:56.263Z,0.52
2023-03-23T23:13:58.993Z,0.80
2023-03-23T23:18:04.854Z,0.52
2023-03-23T23:22:18.439Z,0.90
2023-03-23T23:26:22.507Z,0.70
2023-03-23T23:30:25.639Z,0.65
2023-03-23T23:34:29.709Z,0.95
2023-03-23T23:38:32.354Z,0.82
2023-03-23T23:42:35.116Z,1.33
2023-03-23T23:46:37.842Z,0.90
2023-03-23T23:50:42.387Z,1.10
2023-03-23T23:54:47.318Z,0.75
2023-03-23T23:58:50.170Z,0.90
